Imagination — C6FN2 — position and weather

sailwx.info

Track history (hours):
 
Tides and Currents Weather Stations Pressure Air Temp Water Temp Dewpoint Dewpoint Depression Visibility Wind Speed Wind Dir Waves Ship Positions

Imagination

Operator: Carnival Cruise Lines

Last reported at 2017-Dec-11 17:00 UTC. Time now 2017-Dec-12 04:23 UTC.
Position N 33°21' W 118°19'.

Type: Ship. MMSI: 309933000.

Date/timePositionNaut miles runAvg speedWind from/ knotsBaromVisibWave heightAir tempDewpointWater temp
2017-Dec-11 17:00N 33°21' W 118°19'0 0.0
2017-Dec-11 16:30N 33°21' W 118°19'0 0.0
2017-Dec-11 16:00N 33°21' W 118°19'0 0.0
2017-Dec-11 15:30N 33°21' W 118°19'0 0.6
2017-Dec-11 15:00N 33°21' W 118°19'3 6.1
2017-Dec-11 14:30N 33°18' W 118°17'3 6.8
2017-Dec-11 14:01N 33°15' W 118°17'9 6.8
2017-Dec-11 12:45N 33°06' W 118°17'2 7.4
2017-Dec-11 12:30N 33°05' W 118°16'4 7.5
2017-Dec-11 12:00N 33°02' W 118°13'3 6.7
2017-Dec-11 11:30N 32°60' W 118°10'3 6.7
2017-Dec-11 11:00N 32°58' W 118°07'3 6.6
2017-Dec-11 10:30N 32°56' W 118°04'3 6.6
2017-Dec-11 10:00N 32°54' W 118°00'8738.9
2017-Dec-11 10:00N 32°48' W 117°54'510.4 030 / 81024.2 19.014.217.0
2017-Dec-11 09:30N 32°53' W 117°57'3 6.0
2017-Dec-11 09:00N 32°55' W 117°55'4 7.1
2017-Dec-11 08:30N 32°59' W 117°57'4 7.1
2017-Dec-11 08:00N 33°02' W 117°58'3 6.9
2017-Dec-11 07:30N 33°05' W 117°60'4 7.0
2017-Dec-11 07:00N 33°09' W 118°01'3 7.0
2017-Dec-11 06:30N 33°12' W 118°03'4 7.1
2017-Dec-11 06:00N 33°15' W 118°04'5289.2
2017-Dec-11 06:00N 33°12' W 118°00'816.4 050 / 41018.210.8 19.010.418.0
2017-Dec-11 05:30N 33°18' W 118°06'4 7.2
2017-Dec-11 05:00N 33°22' W 118°07'4 7.2
2017-Dec-11 04:30N 33°25' W 118°09'4 7.3
2017-Dec-11 04:00N 33°28' W 118°10'4 7.2
2017-Dec-11 03:30N 33°32' W 118°12'4 7.4
2017-Dec-11 03:00N 33°35' W 118°13'5 9.3
2017-Dec-11 02:30N 33°40' W 118°12'5 9.1
2017-Dec-11 02:00N 33°44' W 118°11'6 0.4
2017-Dec-10 12:41N 33°39' W 118°10'7 7.6
2017-Dec-10 11:43N 33°32' W 118°08'3 5.8
2017-Dec-10 11:08N 33°28' W 118°07'1 6.0
2017-Dec-10 11:00N 33°28' W 118°06'3 6.4
2017-Dec-10 10:30N 33°25' W 118°05'5 6.8
2017-Dec-10 09:48N 33°20' W 118°03'2 6.9
2017-Dec-10 09:30N 33°18' W 118°02'3 6.4
2017-Dec-10 09:00N 33°16' W 117°60'3 6.4
2017-Dec-10 08:31N 33°13' W 117°58'3 6.6
2017-Dec-10 08:00N 33°10' W 117°56'2176.5
2017-Dec-10 08:00N 33°12' W 117°54'511.2 080 / 101024.2 19.0 8.318.0
2017-Dec-10 07:30N 33°07' W 117°56'3 6.7
2017-Dec-10 07:00N 33°04' W 117°55'3 6.7
2017-Dec-10 06:30N 33°00' W 117°53'3 6.9
2017-Dec-10 06:00N 32°57' W 117°52'4279.3
2017-Dec-10 06:00N 32°54' W 117°48'2 3.7 050 / 131019.227.0 19.0 3.418.0
2017-Dec-10 05:30N 32°54' W 117°50'3 6.7
2017-Dec-10 05:00N 32°51' W 117°49'3 6.7
2017-Dec-10 04:30N 32°48' W 117°48'3 6.7
2017-Dec-10 04:00N 32°44' W 117°48'3 6.7
2017-Dec-10 03:30N 32°41' W 117°47'3 6.5
2017-Dec-10 03:00N 32°38' W 117°46'3 6.6
2017-Dec-10 02:30N 32°35' W 117°45'3 6.7
2017-Dec-10 02:00N 32°31' W 117°45'3 6.9
2017-Dec-10 01:30N 32°28' W 117°45'3 6.5
2017-Dec-10 01:00N 32°25' W 117°45'3 6.6
2017-Dec-10 00:30N 32°21' W 117°45'3 6.9
2017-Dec-10 00:00N 32°18' W 117°45'36 6.0
2017-Dec-09 18:00N 31°42' W 117°48'715.1 060 / 51021.210.8 20.016.917.0
2017-Dec-09 17:31N 31°41' W 117°56'9 6.8
2017-Dec-09 16:11N 31°44' W 118°06'1 6.7
2017-Dec-09 16:00N 31°44' W 118°08'4 7.2
2017-Dec-09 15:30N 31°45' W 118°12'4 6.6
2017-Dec-09 14:58N 31°42' W 118°13'3 7.0
2017-Dec-09 14:30N 31°38' W 118°13'4 7.1
2017-Dec-09 14:00N 31°35' W 118°12'4 6.4
2017-Dec-09 13:27N 31°33' W 118°08'3 6.9
2017-Dec-09 13:00N 31°33' W 118°05'4341.2
2017-Dec-09 13:00N 31°30' W 118°06'611.6 020 / 201026.210.8 19.0 0.417.0
2017-Dec-09 12:30N 31°33' W 118°01'4 7.4
2017-Dec-09 12:00N 31°33' W 117°56'4 7.4
2017-Dec-09 11:30N 31°35' W 117°53'5 7.8
2017-Dec-09 10:51N 31°39' W 117°48'4 7.5
2017-Dec-09 10:19N 31°40' W 117°44'2 7.5
2017-Dec-09 10:00N 31°41' W 117°41'4 7.2
2017-Dec-09 09:30N 31°42' W 117°37'611.7
2017-Dec-09 09:00N 31°42' W 117°30'21 7.1 360 / 201026.2 5.4 19.017.518.0
2017-Dec-09 06:00N 31°48' W 117°06'21 1.1 010 / 201021.227.0 19.015.918.0
2017-Dec-08 11:00N 32°06' W 117°18'1623.2 060 / 231026.2 5.4 21.0-2.918.0
2017-Dec-08 10:18N 32°17' W 117°31'411.9
2017-Dec-08 09:59N 32°21' W 117°34'611.9
2017-Dec-08 09:30N 32°26' W 117°37'611.7
2017-Dec-08 09:00N 32°31' W 117°40'611.8
2017-Dec-08 08:30N 32°36' W 117°44'611.8
2017-Dec-08 08:00N 32°41' W 117°47'612.0
2017-Dec-08 07:30N 32°47' W 117°49'612.0
2017-Dec-08 07:00N 32°52' W 117°52'612.1
2017-Dec-08 06:30N 32°58' W 117°55'611.9
2017-Dec-08 06:00N 33°03' W 117°58'4366.3
2017-Dec-08 06:00N 33°00' W 117°54'1021.1 070 / 81024.210.8 20.0 4.917.0
2017-Dec-08 05:30N 33°09' W 118°01'612.2
2017-Dec-08 05:00N 33°14' W 118°04'2011.7
2017-Dec-08 03:18N 33°33' W 118°12'6 0.4
2017-Dec-07 12:41N 33°39' W 118°11'2 7.7
2017-Dec-07 12:26N 33°37' W 118°10'4 7.2
2017-Dec-07 11:56N 33°34' W 118°09'3 7.0
2017-Dec-07 11:30N 33°31' W 118°08'3 6.8
2017-Dec-07 11:00N 33°28' W 118°06'4 7.4
2017-Dec-07 10:29N 33°24' W 118°04'4 7.5
2017-Dec-07 09:56N 33°20' W 118°03'3 7.3
2017-Dec-07 09:30N 33°17' W 118°01'4 7.1
2017-Dec-07 09:00N 33°14' W 117°60'3 7.0
2017-Dec-07 08:30N 33°11' W 117°58'3 6.9
2017-Dec-07 08:01N 33°08' W 117°57'3 6.8
2017-Dec-07 07:30N 33°05' W 117°55'4 7.1
2017-Dec-07 07:00N 33°01' W 117°53'4 7.2
2017-Dec-07 06:31N 32°58' W 117°52'3 7.0
2017-Dec-07 06:01N 32°55' W 117°50'2128.5
2017-Dec-07 06:00N 32°54' W 117°48'3 5.8 060 / 151017.210.8 18.0 4.517.0
2017-Dec-07 05:30N 32°51' W 117°49'4 7.2
2017-Dec-07 05:01N 32°48' W 117°48'4 7.5
2017-Dec-07 04:30N 32°44' W 117°47'4 7.2
2017-Dec-07 04:00N 32°41' W 117°47'4 7.2
2017-Dec-07 03:29N 32°37' W 117°46'3 7.2
2017-Dec-07 03:01N 32°34' W 117°45'5274.3
2017-Dec-07 03:00N 32°30' W 117°42'3 5.3 330 / 171029.310.8 18.013.118.0
2017-Dec-07 02:30N 32°30' W 117°45'4 7.2
2017-Dec-07 02:00N 32°26' W 117°45'4 7.0
2017-Dec-07 01:30N 32°23' W 117°45'4 7.2
2017-Dec-07 01:00N 32°19' W 117°45'4 7.1
2017-Dec-07 00:30N 32°16' W 117°44'4 7.3
2017-Dec-06 23:59N 32°12' W 117°44'6 7.3
2017-Dec-06 23:12N 32°06' W 117°44'2 7.4
2017-Dec-06 22:56N 32°04' W 117°44'16 7.2
2017-Dec-06 20:43N 31°48' W 117°42'19 7.1
2017-Dec-06 18:00N 31°36' W 118°00'31 3.5 020 / 201019.210.8 18.011.217.0
2017-Dec-06 09:00N 31°42' W 117°24'16 5.5 060 / 101022.3 5.4 17.0 3.119.0
2017-Dec-06 06:00N 31°48' W 117°06'57 2.4 050 / 121015.210.8 16.0 4.219.0
2017-Dec-05 06:00N 32°36' W 117°42'21 1.1 030 / 71020.210.8 15.011.618.0
2017-Dec-04 10:31N 32°55' W 117°52'714.0
2017-Dec-04 10:00N 32°60' W 117°58'510.1
2017-Dec-04 09:30N 32°55' W 117°58'2 3.9
2017-Dec-04 09:00N 32°55' W 117°56'3 7.0
2017-Dec-04 08:30N 32°59' W 117°57'3 6.9
2017-Dec-04 08:00N 33°02' W 117°58'3 6.9
2017-Dec-04 07:30N 33°05' W 117°60'4 7.1
2017-Dec-04 07:00N 33°09' W 118°01'4 7.2
2017-Dec-04 06:30N 33°12' W 118°03'4 7.4
2017-Dec-04 06:00N 33°15' W 118°04'3 7.1
2017-Dec-04 05:30N 33°19' W 118°06'4 6.8
2017-Dec-04 04:59N 33°22' W 118°07'4 7.0
2017-Dec-04 04:24N 33°26' W 118°09'3 7.4
2017-Dec-04 04:00N 33°28' W 118°10'4 7.3
2017-Dec-04 03:29N 33°32' W 118°12'4 8.2
2017-Dec-04 03:00N 33°36' W 118°13'4 8.7
2017-Dec-04 02:30N 33°40' W 118°12'4 8.5
2017-Dec-04 01:58N 33°45' W 118°11'1 0.7
2017-Dec-04 01:11N 33°45' W 118°11'0 0.0
2017-Dec-04 00:59N 33°45' W 118°11'0 0.0
2017-Dec-04 00:16N 33°45' W 118°11'0 0.0
2017-Dec-03 23:58N 33°45' W 118°11'0 0.0
2017-Dec-03 23:16N 33°45' W 118°11'0 0.0
2017-Dec-03 13:32N 33°45' W 118°11'0 1.7
2017-Dec-03 13:30N 33°45' W 118°11'5 7.3
2017-Dec-03 12:52N 33°40' W 118°11'3 7.3
2017-Dec-03 12:30N 33°38' W 118°10'4 7.4
2017-Dec-03 11:57N 33°34' W 118°09'3 7.1
2017-Dec-03 11:31N 33°31' W 118°08'4 7.3
2017-Dec-03 11:01N 33°27' W 118°06'4 7.3
2017-Dec-03 10:31N 33°24' W 118°04'4 7.3
2017-Dec-03 10:00N 33°20' W 118°03'3401.3
2017-Dec-03 10:00N 33°18' W 118°00'1 2.9 180 / 31021.310.8 15.013.318.0
2017-Dec-03 09:31N 33°17' W 118°01'4 7.4
2017-Dec-03 09:01N 33°14' W 117°60'4 7.2
2017-Dec-03 08:31N 33°10' W 117°58'4 7.5
2017-Dec-03 08:01N 33°07' W 117°56'4 7.6
2017-Dec-03 07:30N 33°03' W 117°55'4 7.7
2017-Dec-03 07:01N 32°60' W 117°53'7417.2
2017-Dec-03 07:00N 32°54' W 117°48'3 7.0 240 / 51021.210.8 17.013.718.0
2017-Dec-03 06:30N 32°56' W 117°51'4 7.7
2017-Dec-03 06:00N 32°52' W 117°50'4 7.6
2017-Dec-03 05:30N 32°49' W 117°49'4 7.5
2017-Dec-03 05:00N 32°45' W 117°48'4 7.9
2017-Dec-03 04:30N 32°41' W 117°47'4 8.1
2017-Dec-03 04:00N 32°37' W 117°46'4 8.2
2017-Dec-03 03:29N 32°33' W 117°44'4 7.9
2017-Dec-03 03:01N 32°30' W 117°43'151.6
2017-Dec-03 03:00N 32°30' W 117°42'4 8.4 280 / 81021.210.8 17.013.719.0
2017-Dec-03 02:30N 32°26' W 117°41'4 8.0
2017-Dec-03 01:58N 32°22' W 117°40'5 8.1
2017-Dec-03 01:24N 32°18' W 117°38'3 8.0
2017-Dec-03 00:59N 32°15' W 117°37'13 8.0
2017-Dec-02 23:23N 32°02' W 117°32'3 7.2
2017-Dec-02 23:00N 32°00' W 117°30'135.9 300 / 81020.310.8 17.013.718.0
2017-Dec-02 22:58N 31°59' W 117°31'4 7.7
2017-Dec-02 22:31N 31°56' W 117°29'11 6.4
2017-Dec-02 20:50N 31°49' W 117°38'2 7.2
2017-Dec-02 20:30N 31°48' W 117°41'4 7.1
2017-Dec-02 19:59N 31°46' W 117°45'3 6.9
2017-Dec-02 19:30N 31°45' W 117°48'4 6.9
2017-Dec-02 18:59N 31°43' W 117°52'3 7.1
2017-Dec-02 18:29N 31°41' W 117°55'510.4
2017-Dec-02 18:00N 31°36' W 117°54'6202.0 1021.210.8 18.014.818.0
2017-Dec-02 17:58N 31°40' W 117°59'3 6.9
2017-Dec-02 17:29N 31°42' W 118°03'3 6.8
2017-Dec-02 17:01N 31°43' W 118°06'4 7.9
2017-Dec-02 16:27N 31°46' W 118°10'3 7.2
2017-Dec-02 16:01N 31°45' W 118°13'3 6.7
2017-Dec-02 15:31N 31°41' W 118°13'3 6.7
2017-Dec-02 15:00N 31°38' W 118°13'16 5.9
2017-Dec-02 12:14N 31°35' W 117°54'4 7.2
2017-Dec-02 11:44N 31°37' W 117°51'2 7.2
2017-Dec-02 11:31N 31°38' W 117°49'2 4.6
2017-Dec-02 11:00N 31°36' W 117°48'43 8.5 320 / 101019.310.8 17.013.718.0
2017-Dec-02 06:00N 31°48' W 117°00'   030 / 131015.210.8 17.015.418.0
Track history (hours):
 
Tides and Currents Weather Stations Pressure Air Temp Water Temp Dewpoint Dewpoint Depression Visibility Wind Speed Wind Dir Waves Ship Positions

Imagination

Operator: Carnival Cruise Lines

Last reported at 2017-Dec-11 17:00 UTC. Time now 2017-Dec-12 04:23 UTC.
Position N 33°21' W 118°19'.

Type: Ship. MMSI: 309933000.

Date/timePositionNaut miles runAvg speedWind from/ knotsBaromVisibWave heightAir tempDewpointWater temp
2017-Dec-11 17:00N 33°21' W 118°19'0 0.0
2017-Dec-11 16:30N 33°21' W 118°19'0 0.0
2017-Dec-11 16:00N 33°21' W 118°19'0 0.0
2017-Dec-11 15:30N 33°21' W 118°19'0 0.6
2017-Dec-11 15:00N 33°21' W 118°19'3 6.1
2017-Dec-11 14:30N 33°18' W 118°17'3 6.8
2017-Dec-11 14:01N 33°15' W 118°17'9 6.8
2017-Dec-11 12:45N 33°06' W 118°17'2 7.4
2017-Dec-11 12:30N 33°05' W 118°16'4 7.5
2017-Dec-11 12:00N 33°02' W 118°13'3 6.7
2017-Dec-11 11:30N 32°60' W 118°10'3 6.7
2017-Dec-11 11:00N 32°58' W 118°07'3 6.6
2017-Dec-11 10:30N 32°56' W 118°04'3 6.6
2017-Dec-11 10:00N 32°54' W 118°00'8738.9
2017-Dec-11 10:00N 32°48' W 117°54'510.4 030 / 81024.2 19.014.217.0
2017-Dec-11 09:30N 32°53' W 117°57'3 6.0
2017-Dec-11 09:00N 32°55' W 117°55'4 7.1
2017-Dec-11 08:30N 32°59' W 117°57'4 7.1
2017-Dec-11 08:00N 33°02' W 117°58'3 6.9
2017-Dec-11 07:30N 33°05' W 117°60'4 7.0
2017-Dec-11 07:00N 33°09' W 118°01'3 7.0
2017-Dec-11 06:30N 33°12' W 118°03'4 7.1
2017-Dec-11 06:00N 33°15' W 118°04'5289.2
2017-Dec-11 06:00N 33°12' W 118°00'816.4 050 / 41018.210.8 19.010.418.0
2017-Dec-11 05:30N 33°18' W 118°06'4 7.2
2017-Dec-11 05:00N 33°22' W 118°07'4 7.2
2017-Dec-11 04:30N 33°25' W 118°09'4 7.3
2017-Dec-11 04:00N 33°28' W 118°10'4 7.2
2017-Dec-11 03:30N 33°32' W 118°12'4 7.4
2017-Dec-11 03:00N 33°35' W 118°13'5 9.3
2017-Dec-11 02:30N 33°40' W 118°12'5 9.1
2017-Dec-11 02:00N 33°44' W 118°11'6 0.4
2017-Dec-10 12:41N 33°39' W 118°10'7 7.6
2017-Dec-10 11:43N 33°32' W 118°08'3 5.8
2017-Dec-10 11:08N 33°28' W 118°07'1 6.0
2017-Dec-10 11:00N 33°28' W 118°06'3 6.4
2017-Dec-10 10:30N 33°25' W 118°05'5 6.8
2017-Dec-10 09:48N 33°20' W 118°03'2 6.9
2017-Dec-10 09:30N 33°18' W 118°02'3 6.4
2017-Dec-10 09:00N 33°16' W 117°60'3 6.4
2017-Dec-10 08:31N 33°13' W 117°58'3 6.6
2017-Dec-10 08:00N 33°10' W 117°56'2176.5
2017-Dec-10 08:00N 33°12' W 117°54'511.2 080 / 101024.2 19.0 8.318.0
2017-Dec-10 07:30N 33°07' W 117°56'3 6.7
2017-Dec-10 07:00N 33°04' W 117°55'3 6.7
2017-Dec-10 06:30N 33°00' W 117°53'3 6.9
2017-Dec-10 06:00N 32°57' W 117°52'4279.3
2017-Dec-10 06:00N 32°54' W 117°48'2 3.7 050 / 131019.227.0 19.0 3.418.0
2017-Dec-10 05:30N 32°54' W 117°50'3 6.7
2017-Dec-10 05:00N 32°51' W 117°49'3 6.7
2017-Dec-10 04:30N 32°48' W 117°48'3 6.7
2017-Dec-10 04:00N 32°44' W 117°48'3 6.7
2017-Dec-10 03:30N 32°41' W 117°47'3 6.5
2017-Dec-10 03:00N 32°38' W 117°46'3 6.6
2017-Dec-10 02:30N 32°35' W 117°45'3 6.7
2017-Dec-10 02:00N 32°31' W 117°45'3 6.9
2017-Dec-10 01:30N 32°28' W 117°45'3 6.5
2017-Dec-10 01:00N 32°25' W 117°45'3 6.6
2017-Dec-10 00:30N 32°21' W 117°45'3 6.9
2017-Dec-10 00:00N 32°18' W 117°45'36 6.0
2017-Dec-09 18:00N 31°42' W 117°48'715.1 060 / 51021.210.8 20.016.917.0
2017-Dec-09 17:31N 31°41' W 117°56'9 6.8
2017-Dec-09 16:11N 31°44' W 118°06'1 6.7
2017-Dec-09 16:00N 31°44' W 118°08'4 7.2
2017-Dec-09 15:30N 31°45' W 118°12'4 6.6
2017-Dec-09 14:58N 31°42' W 118°13'3 7.0
2017-Dec-09 14:30N 31°38' W 118°13'4 7.1
2017-Dec-09 14:00N 31°35' W 118°12'4 6.4
2017-Dec-09 13:27N 31°33' W 118°08'3 6.9
2017-Dec-09 13:00N 31°33' W 118°05'4341.2
2017-Dec-09 13:00N 31°30' W 118°06'611.6 020 / 201026.210.8 19.0 0.417.0
2017-Dec-09 12:30N 31°33' W 118°01'4 7.4
2017-Dec-09 12:00N 31°33' W 117°56'4 7.4
2017-Dec-09 11:30N 31°35' W 117°53'5 7.8
2017-Dec-09 10:51N 31°39' W 117°48'4 7.5
2017-Dec-09 10:19N 31°40' W 117°44'2 7.5
2017-Dec-09 10:00N 31°41' W 117°41'4 7.2
2017-Dec-09 09:30N 31°42' W 117°37'611.7
2017-Dec-09 09:00N 31°42' W 117°30'21 7.1 360 / 201026.2 5.4 19.017.518.0
2017-Dec-09 06:00N 31°48' W 117°06'21 1.1 010 / 201021.227.0 19.015.918.0
2017-Dec-08 11:00N 32°06' W 117°18'1623.2 060 / 231026.2 5.4 21.0-2.918.0
2017-Dec-08 10:18N 32°17' W 117°31'411.9
2017-Dec-08 09:59N 32°21' W 117°34'611.9
2017-Dec-08 09:30N 32°26' W 117°37'611.7
2017-Dec-08 09:00N 32°31' W 117°40'611.8
2017-Dec-08 08:30N 32°36' W 117°44'611.8
2017-Dec-08 08:00N 32°41' W 117°47'612.0
2017-Dec-08 07:30N 32°47' W 117°49'612.0
2017-Dec-08 07:00N 32°52' W 117°52'612.1
2017-Dec-08 06:30N 32°58' W 117°55'611.9
2017-Dec-08 06:00N 33°03' W 117°58'4366.3
2017-Dec-08 06:00N 33°00' W 117°54'1021.1 070 / 81024.210.8 20.0 4.917.0
2017-Dec-08 05:30N 33°09' W 118°01'612.2
2017-Dec-08 05:00N 33°14' W 118°04'2011.7
2017-Dec-08 03:18N 33°33' W 118°12'6 0.4
2017-Dec-07 12:41N 33°39' W 118°11'2 7.7
2017-Dec-07 12:26N 33°37' W 118°10'4 7.2
2017-Dec-07 11:56N 33°34' W 118°09'3 7.0
2017-Dec-07 11:30N 33°31' W 118°08'3 6.8
2017-Dec-07 11:00N 33°28' W 118°06'4 7.4
2017-Dec-07 10:29N 33°24' W 118°04'4 7.5
2017-Dec-07 09:56N 33°20' W 118°03'3 7.3
2017-Dec-07 09:30N 33°17' W 118°01'4 7.1
2017-Dec-07 09:00N 33°14' W 117°60'3 7.0
2017-Dec-07 08:30N 33°11' W 117°58'3 6.9
2017-Dec-07 08:01N 33°08' W 117°57'3 6.8
2017-Dec-07 07:30N 33°05' W 117°55'4 7.1
2017-Dec-07 07:00N 33°01' W 117°53'4 7.2
2017-Dec-07 06:31N 32°58' W 117°52'3 7.0
2017-Dec-07 06:01N 32°55' W 117°50'2128.5
2017-Dec-07 06:00N 32°54' W 117°48'3 5.8 060 / 151017.210.8 18.0 4.517.0
2017-Dec-07 05:30N 32°51' W 117°49'4 7.2
2017-Dec-07 05:01N 32°48' W 117°48'4 7.5
2017-Dec-07 04:30N 32°44' W 117°47'4 7.2
2017-Dec-07 04:00N 32°41' W 117°47'4 7.2
2017-Dec-07 03:29N 32°37' W 117°46'3 7.2
2017-Dec-07 03:01N 32°34' W 117°45'5274.3
2017-Dec-07 03:00N 32°30' W 117°42'3 5.3 330 / 171029.310.8 18.013.118.0
2017-Dec-07 02:30N 32°30' W 117°45'4 7.2
2017-Dec-07 02:00N 32°26' W 117°45'4 7.0
2017-Dec-07 01:30N 32°23' W 117°45'4 7.2
2017-Dec-07 01:00N 32°19' W 117°45'4 7.1
2017-Dec-07 00:30N 32°16' W 117°44'4 7.3
2017-Dec-06 23:59N 32°12' W 117°44'6 7.3
2017-Dec-06 23:12N 32°06' W 117°44'2 7.4
2017-Dec-06 22:56N 32°04' W 117°44'16 7.2
2017-Dec-06 20:43N 31°48' W 117°42'19 7.1
2017-Dec-06 18:00N 31°36' W 118°00'31 3.5 020 / 201019.210.8 18.011.217.0
2017-Dec-06 09:00N 31°42' W 117°24'16 5.5 060 / 101022.3 5.4 17.0 3.119.0
2017-Dec-06 06:00N 31°48' W 117°06'57 2.4 050 / 121015.210.8 16.0 4.219.0
2017-Dec-05 06:00N 32°36' W 117°42'21 1.1 030 / 71020.210.8 15.011.618.0
2017-Dec-04 10:31N 32°55' W 117°52'714.0
2017-Dec-04 10:00N 32°60' W 117°58'510.1
2017-Dec-04 09:30N 32°55' W 117°58'2 3.9
2017-Dec-04 09:00N 32°55' W 117°56'3 7.0
2017-Dec-04 08:30N 32°59' W 117°57'3 6.9
2017-Dec-04 08:00N 33°02' W 117°58'3 6.9
2017-Dec-04 07:30N 33°05' W 117°60'4 7.1
2017-Dec-04 07:00N 33°09' W 118°01'4 7.2
2017-Dec-04 06:30N 33°12' W 118°03'4 7.4
2017-Dec-04 06:00N 33°15' W 118°04'3 7.1
2017-Dec-04 05:30N 33°19' W 118°06'4 6.8
2017-Dec-04 04:59N 33°22' W 118°07'4 7.0
2017-Dec-04 04:24N 33°26' W 118°09'3 7.4
2017-Dec-04 04:00N 33°28' W 118°10'4 7.3
2017-Dec-04 03:29N 33°32' W 118°12'4 8.2
2017-Dec-04 03:00N 33°36' W 118°13'4 8.7
2017-Dec-04 02:30N 33°40' W 118°12'4 8.5
2017-Dec-04 01:58N 33°45' W 118°11'1 0.7
2017-Dec-04 01:11N 33°45' W 118°11'0 0.0
2017-Dec-04 00:59N 33°45' W 118°11'0 0.0
2017-Dec-04 00:16N 33°45' W 118°11'0 0.0
2017-Dec-03 23:58N 33°45' W 118°11'0 0.0
2017-Dec-03 23:16N 33°45' W 118°11'0 0.0
2017-Dec-03 13:32N 33°45' W 118°11'0 1.7
2017-Dec-03 13:30N 33°45' W 118°11'5 7.3
2017-Dec-03 12:52N 33°40' W 118°11'3 7.3
2017-Dec-03 12:30N 33°38' W 118°10'4 7.4
2017-Dec-03 11:57N 33°34' W 118°09'3 7.1
2017-Dec-03 11:31N 33°31' W 118°08'4 7.3
2017-Dec-03 11:01N 33°27' W 118°06'4 7.3
2017-Dec-03 10:31N 33°24' W 118°04'4 7.3
2017-Dec-03 10:00N 33°20' W 118°03'3401.3
2017-Dec-03 10:00N 33°18' W 118°00'1 2.9 180 / 31021.310.8 15.013.318.0
2017-Dec-03 09:31N 33°17' W 118°01'4 7.4
2017-Dec-03 09:01N 33°14' W 117°60'4 7.2
2017-Dec-03 08:31N 33°10' W 117°58'4 7.5
2017-Dec-03 08:01N 33°07' W 117°56'4 7.6
2017-Dec-03 07:30N 33°03' W 117°55'4 7.7
2017-Dec-03 07:01N 32°60' W 117°53'7417.2
2017-Dec-03 07:00N 32°54' W 117°48'3 7.0 240 / 51021.210.8 17.013.718.0
2017-Dec-03 06:30N 32°56' W 117°51'4 7.7
2017-Dec-03 06:00N 32°52' W 117°50'4 7.6
2017-Dec-03 05:30N 32°49' W 117°49'4 7.5
2017-Dec-03 05:00N 32°45' W 117°48'4 7.9
2017-Dec-03 04:30N 32°41' W 117°47'4 8.1
2017-Dec-03 04:00N 32°37' W 117°46'4 8.2
2017-Dec-03 03:29N 32°33' W 117°44'4 7.9
2017-Dec-03 03:01N 32°30' W 117°43'151.6
2017-Dec-03 03:00N 32°30' W 117°42'4 8.4 280 / 81021.210.8 17.013.719.0
2017-Dec-03 02:30N 32°26' W 117°41'4 8.0
2017-Dec-03 01:58N 32°22' W 117°40'5 8.1
2017-Dec-03 01:24N 32°18' W 117°38'3 8.0
2017-Dec-03 00:59N 32°15' W 117°37'13 8.0
2017-Dec-02 23:23N 32°02' W 117°32'3 7.2
2017-Dec-02 23:00N 32°00' W 117°30'135.9 300 / 81020.310.8 17.013.718.0
2017-Dec-02 22:58N 31°59' W 117°31'4 7.7
2017-Dec-02 22:31N 31°56' W 117°29'11 6.4
2017-Dec-02 20:50N 31°49' W 117°38'2 7.2
2017-Dec-02 20:30N 31°48' W 117°41'4 7.1
2017-Dec-02 19:59N 31°46' W 117°45'3 6.9
2017-Dec-02 19:30N 31°45' W 117°48'4 6.9
2017-Dec-02 18:59N 31°43' W 117°52'3 7.1
2017-Dec-02 18:29N 31°41' W 117°55'510.4
2017-Dec-02 18:00N 31°36' W 117°54'6202.0 1021.210.8 18.014.818.0
2017-Dec-02 17:58N 31°40' W 117°59'3 6.9
2017-Dec-02 17:29N 31°42' W 118°03'3 6.8
2017-Dec-02 17:01N 31°43' W 118°06'4 7.9
2017-Dec-02 16:27N 31°46' W 118°10'3 7.2
2017-Dec-02 16:01N 31°45' W 118°13'3 6.7
2017-Dec-02 15:31N 31°41' W 118°13'3 6.7
2017-Dec-02 15:00N 31°38' W 118°13'16 5.9
2017-Dec-02 12:14N 31°35' W 117°54'4 7.2
2017-Dec-02 11:44N 31°37' W 117°51'2 7.2
2017-Dec-02 11:31N 31°38' W 117°49'2 4.6
2017-Dec-02 11:00N 31°36' W 117°48'43 8.5 320 / 101019.310.8 17.013.718.0
2017-Dec-02 06:00N 31°48' W 117°00'   030 / 131015.210.8 17.015.418.0

Dump ship's entire track history